Time;durP1;ratioP1;P1;durP2;ratioP2;P2;SDS_P1;SDS_P2;PMS_P1;PMS_P2;Temp;Humidity;BMP_temperature;BMP_pressure;BME280_temperature;BME280_humidity;BME280_pressure;Samples;Min_cycle;Max_cycle;Signal;HPM_P1;HPM_P2
2023/10/18 00:02:06;;;;;;;;;;;;;;;3.34;75.33;101057.59;110714;1210;96692;-66
2023/10/18 00:04:31;;;;;;;;;;;;;;;3.32;75.65;101059.55;110635;1212;125637;-66
2023/10/18 00:06:58;;;;;;;;;;;;;;;3.29;75.58;101058.34;110765;1213;96302;-64
2023/10/18 00:09:42;;;;;;;;;;;;;;;3.24;75.67;101055.02;110637;1209;124944;-64
2023/10/18 00:12:07;;;;;;;;;;;;;;;3.21;75.83;101053.09;110675;1210;99903;-63
2023/10/18 00:14:33;;;;;;;;;;;;;;;3.20;75.73;101059.80;110677;1220;96774;-64
2023/10/18 00:16:59;;;;;;;;;;;;;;;3.20;75.67;101055.92;110733;1212;125603;-64
2023/10/18 00:19:26;;;;;;;;;;;;;;;3.18;75.79;101052.95;110661;1209;109522;-65
2023/10/18 00:21:52;;;;;;;;;;;;;;;3.16;75.77;101051.00;110648;1212;125337;-65
2023/10/18 00:24:17;;;;;;;;;;;;;;;3.15;75.97;101046.06;110695;1209;96249;-65
2023/10/18 00:26:43;;;;;;;;;;;;;;;3.15;76.04;101049.95;110827;1214;96376;-65
2023/10/18 00:29:08;;;;;;;;;;;;;;;3.12;76.06;101046.44;110618;1209;125062;-65
2023/10/18 00:31:33;;;;;;;;;;;;;;;3.11;75.96;101046.45;110822;1210;96384;-65
2023/10/18 00:33:58;;;;;;;;;;;;;;;3.10;76.09;101047.16;110627;1209;124482;-65
2023/10/18 00:36:24;;;;;;;;;;;;;;;3.08;76.32;101046.12;110701;1212;96361;-66
2023/10/18 00:38:52;;;;;;;;;;;;;;;3.06;76.16;101045.42;110806;1209;96926;-65
2023/10/18 00:41:32;;;;;;;;;;;;;;;3.05;76.26;101042.08;110627;1210;125154;-65
2023/10/18 00:43:57;;;;;;;;;;;;;;;3.05;76.20;101037.31;110763;1228;96333;-65
2023/10/18 00:46:23;;;;;;;;;;;;;;;3.06;76.54;101037.65;110579;1212;124831;-65
2023/10/18 00:48:48;;;;;;;;;;;;;;;3.06;76.59;101038.54;110865;1221;96317;-65
2023/10/18 00:51:17;;;;;;;;;;;;;;;3.06;76.57;101036.95;110626;1209;96440;-65
2023/10/18 00:53:44;;;;;;;;;;;;;;;3.07;76.67;101033.40;110645;1209;125436;-65
2023/10/18 00:56:12;;;;;;;;;;;;;;;3.08;76.79;101025.27;110732;1214;95135;-65
2023/10/18 00:58:39;;;;;;;;;;;;;;;3.08;76.79;101023.52;110676;1212;124893;-65
2023/10/18 01:01:11;;;;;;;;;;;;;;;3.08;76.75;101028.64;110708;1209;97149;-65
2023/10/18 01:03:46;;;;;;;;;;;;;;;3.08;76.96;101028.64;110583;1209;125218;-65
2023/10/18 01:06:24;;;;;;;;;;;;;;;3.08;76.74;101028.28;110731;1209;96255;-65
2023/10/18 01:08:49;;;;;;;;;;;;;;;3.08;76.82;101022.64;110772;1212;96344;-65
2023/10/18 01:11:19;;;;;;;;;;;;;;;3.07;76.87;101022.64;110598;1209;125270;-65
2023/10/18 01:13:45;;;;;;;;;;;;;;;3.06;77.05;101022.84;110738;1210;100002;-65
2023/10/18 01:16:14;;;;;;;;;;;;;;;3.03;76.97;101023.02;110645;1212;124464;-65
2023/10/18 01:18:43;;;;;;;;;;;;;;;2.99;76.89;101027.98;110665;1225;96391;-63
2023/10/18 01:21:13;;;;;;;;;;;;;;;2.95;77.20;101025.02;110684;1209;96319;-62
2023/10/18 01:23:40;;;;;;;;;;;;;;;2.94;77.16;101014.79;110709;1213;124608;-64
2023/10/18 01:26:08;;;;;;;;;;;;;;;2.94;77.15;101017.42;110717;1209;95178;-63
2023/10/18 01:28:34;;;;;;;;;;;;;;;2.93;77.31;101014.61;110702;1213;124190;-64
2023/10/18 01:30:59;;;;;;;;;;;;;;;2.91;77.20;101013.56;110692;1209;96389;-64
2023/10/18 01:33:24;;;;;;;;;;;;;;;2.90;77.41;101015.16;110742;1214;124543;-65
2023/10/18 01:35:53;;;;;;;;;;;;;;;2.88;77.31;101014.11;110657;1209;96360;-64
2023/10/18 01:38:20;;;;;;;;;;;;;;;2.85;77.33;101018.02;110784;1212;107873;-64
2023/10/18 01:40:55;;;;;;;;;;;;;;;2.83;77.49;101014.48;110635;1209;125042;-64
2023/10/18 01:43:22;;;;;;;;;;;;;;;2.81;77.41;101013.45;110716;1209;95928;-64
2023/10/18 01:45:49;;;;;;;;;;;;;;;2.78;77.46;101012.41;110596;1212;124522;-64
2023/10/18 01:48:18;;;;;;;;;;;;;;;2.75;77.59;101012.42;110726;1210;97658;-64
2023/10/18 01:50:43;;;;;;;;;;;;;;;2.72;77.47;101017.02;110641;1212;107958;-64
2023/10/18 01:53:15;;;;;;;;;;;;;;;2.71;77.54;101016.85;110615;1212;126246;-64
2023/10/18 01:55:43;;;;;;;;;;;;;;;2.69;77.55;101016.52;110757;1212;96957;-64
2023/10/18 01:58:09;;;;;;;;;;;;;;;2.69;77.66;101019.69;110625;1210;124434;-64
2023/10/18 02:00:37;;;;;;;;;;;;;;;2.70;77.83;101018.28;110714;1212;97750;-64
2023/10/18 02:03:05;;;;;;;;;;;;;;;2.69;77.85;101019.87;110733;1210;96245;-65
2023/10/18 02:05:31;;;;;;;;;;;;;;;2.69;77.90;101023.92;110635;1213;125892;-64
2023/10/18 02:07:56;;;;;;;;;;;;;;;2.69;77.92;101025.86;110773;1212;96227;-63
2023/10/18 02:10:23;;;;;;;;;;;;;;;2.71;77.86;101026.38;110686;1212;125076;-64
2023/10/18 02:12:48;;;;;;;;;;;;;;;2.70;78.00;101021.80;110793;1212;107981;-63
2023/10/18 02:15:15;;;;;;;;;;;;;;;2.67;77.89;101021.46;110741;1209;96393;-64
2023/10/18 02:17:43;;;;;;;;;;;;;;;2.62;77.77;101021.66;110676;1212;124137;-63
2023/10/18 02:20:25;;;;;;;;;;;;;;;2.61;77.88;101024.84;110640;1215;99972;-63
2023/10/18 02:22:53;;;;;;;;;;;;;;;2.60;77.99;101019.23;110623;1213;125373;-63
2023/10/18 02:25:29;;;;;;;;;;;;;;;2.58;78.17;101010.60;110710;1224;96462;-63
2023/10/18 02:27:55;;;;;;;;;;;;;;;2.59;78.18;101009.20;110651;1212;125181;-63
2023/10/18 02:30:20;;;;;;;;;;;;;;;2.59;78.11;101003.90;110695;1212;98329;-63
2023/10/18 02:32:48;;;;;;;;;;;;;;;2.57;78.06;101003.20;110811;1213;96263;-63
2023/10/18 02:35:16;;;;;;;;;;;;;;;2.48;77.88;101000.95;110635;1213;124430;-63
2023/10/18 02:37:41;;;;;;;;;;;;;;;2.40;78.05;100996.23;110749;1212;96273;-63
2023/10/18 02:40:17;;;;;;;;;;;;;;;2.35;78.07;100995.72;110599;1209;124674;-63
2023/10/18 02:42:42;;;;;;;;;;;;;;;2.32;77.94;100996.79;110782;1213;99473;-63
2023/10/18 02:45:12;;;;;;;;;;;;;;;2.27;78.04;100996.27;110643;1209;96716;-63
2023/10/18 02:47:38;;;;;;;;;;;;;;;2.24;78.09;100993.83;110717;1212;125024;-63
2023/10/18 02:50:04;;;;;;;;;;;;;;;2.24;78.28;100997.17;110724;1209;95096;-63
2023/10/18 02:52:30;;;;;;;;;;;;;;;2.22;78.15;100998.06;110669;1212;125725;-63
2023/10/18 02:54:57;;;;;;;;;;;;;;;2.19;78.19;100999.84;110770;1210;107865;-63
2023/10/18 02:57:24;;;;;;;;;;;;;;;2.17;78.28;101002.14;110760;1209;96265;-63
2023/10/18 02:59:50;;;;;;;;;;;;;;;2.15;78.24;101000.20;110738;1212;96327;-63
2023/10/18 03:02:15;;;;;;;;;;;;;;;2.11;78.28;100997.75;110781;1212;96268;-64
2023/10/18 03:04:43;;;;;;;;;;;;;;;2.05;78.13;100994.23;110713;1213;124689;-63
2023/10/18 03:07:13;;;;;;;;;;;;;;;2.00;78.20;100993.55;110710;1213;96649;-63
2023/10/18 03:09:38;;;;;;;;;;;;;;;2.01;78.35;101000.42;110757;1212;125837;-63
2023/10/18 03:12:13;;;;;;;;;;;;;;;2.01;78.37;101004.13;110760;1213;96309;-63
2023/10/18 03:14:41;;;;;;;;;;;;;;;2.01;78.60;101002.18;110755;1212;100173;-63
2023/10/18 03:17:15;;;;;;;;;;;;;;;2.00;78.51;100998.84;110596;1212;124976;-63
2023/10/18 03:19:44;;;;;;;;;;;;;;;2.00;78.66;100994.43;110717;1226;96285;-63
2023/10/18 03:22:10;;;;;;;;;;;;;;;1.99;78.62;100997.44;110611;1213;124343;-63
2023/10/18 03:24:37;;;;;;;;;;;;;;;2.00;78.57;100989.85;110753;1209;96348;-63
2023/10/18 03:27:08;;;;;;;;;;;;;;;2.00;78.66;100990.55;110816;1209;96321;-63
2023/10/18 03:29:35;;;;;;;;;;;;;;;1.98;78.83;100988.80;110659;1209;124787;-63
2023/10/18 03:32:03;;;;;;;;;;;;;;;1.94;78.81;100984.77;110718;1212;96973;-63
2023/10/18 03:34:35;;;;;;;;;;;;;;;1.93;78.69;100987.05;110630;1212;124887;-63
2023/10/18 03:37:00;;;;;;;;;;;;;;;1.92;78.80;100991.11;110637;1212;110383;-63
2023/10/18 03:39:25;;;;;;;;;;;;;;;1.91;79.02;100992.34;110592;1213;124673;-64
2023/10/18 03:41:51;;;;;;;;;;;;;;;1.91;78.98;100996.04;110848;1212;96546;-64
2023/10/18 03:44:32;;;;;;;;;;;;;;;1.92;78.94;100989.52;110730;1210;96316;-65
2023/10/18 03:47:03;;;;;;;;;;;;;;;1.92;79.12;100985.29;110724;1213;124434;-64
2023/10/18 03:51:56;;;;;;;;;;;;;;;1.89;78.92;100979.83;110593;1209;126709;-64
2023/10/18 03:54:23;;;;;;;;;;;;;;;1.88;79.06;100973.67;110663;1212;98243;-63
2023/10/18 03:56:52;;;;;;;;;;;;;;;1.88;79.08;100974.90;110842;1209;95113;-64
2023/10/18 03:59:25;;;;;;;;;;;;;;;1.89;79.16;100973.67;110611;1213;124345;-64
2023/10/18 04:02:05;;;;;;;;;;;;;;;1.89;79.34;100971.02;110794;1209;100265;-64
2023/10/18 04:04:37;;;;;;;;;;;;;;;1.90;79.14;100968.20;110633;1214;124370;-64
2023/10/18 04:07:20;;;;;;;;;;;;;;;1.88;79.26;100963.45;110817;1212;96256;-64
2023/10/18 04:10:11;;;;;;;;;;;;;;;1.83;79.15;100955.54;110659;1213;124642;-64
2023/10/18 04:12:37;;;;;;;;;;;;;;;1.81;79.10;100954.14;110752;1213;109954;-64
2023/10/18 04:15:21;;;;;;;;;;;;;;;1.78;79.18;100951.67;110714;1212;96414;-64
2023/10/18 04:17:49;;;;;;;;;;;;;;;1.75;79.20;100953.45;110705;1212;124118;-64
2023/10/18 04:22:46;;;;;;;;;;;;;;;1.72;79.23;100948.34;110557;1212;124648;-63
2023/10/18 04:25:25;;;;;;;;;;;;;;;1.70;79.26;100939.54;110699;1210;97239;-64
2023/10/18 04:27:51;;;;;;;;;;;;;;;1.67;79.36;100936.02;110640;1212;124639;-64
2023/10/18 04:30:16;;;;;;;;;;;;;;;1.63;79.29;100938.49;110646;1225;96343;-64
2023/10/18 04:32:42;;;;;;;;;;;;;;;1.60;79.24;100940.44;110809;1213;96244;-64
2023/10/18 04:35:15;;;;;;;;;;;;;;;1.54;79.38;100938.00;110652;1209;124281;-64
2023/10/18 04:37:40;;;;;;;;;;;;;;;1.51;79.36;100939.40;110798;1216;100264;-63
2023/10/18 04:40:15;;;;;;;;;;;;;;;1.50;79.43;100939.59;110621;1209;124735;-63
2023/10/18 04:42:41;;;;;;;;;;;;;;;1.50;79.37;100940.46;110691;1210;97818;-64
2023/10/18 04:45:16;;;;;;;;;;;;;;;1.50;79.46;100937.83;110748;1212;96221;-63
2023/10/18 04:47:41;;;;;;;;;;;;;;;1.48;79.46;100938.17;110625;1209;124212;-63
2023/10/18 04:50:11;;;;;;;;;;;;;;;1.46;79.40;100937.65;110683;1212;98157;-64
2023/10/18 04:52:42;;;;;;;;;;;;;;;1.44;79.49;100941.17;110646;1212;124308;-64
2023/10/18 04:55:12;;;;;;;;;;;;;;;1.41;79.43;100941.54;110598;1210;96109;-65
2023/10/18 04:57:41;;;;;;;;;;;;;;;1.38;79.28;100941.19;110589;1212;125478;-65
2023/10/18 05:03:13;;;;;;;;;;;;;;;1.29;79.39;100942.42;110304;1212;100034;-65
2023/10/18 05:05:44;;;;;;;;;;;;;;;1.27;79.46;100945.95;110922;1209;124742;-65
2023/10/18 05:08:13;;;;;;;;;;;;;;;1.25;79.34;100940.85;110670;1224;96301;-65
2023/10/18 05:10:39;;;;;;;;;;;;;;;1.23;79.54;100943.49;110486;1209;124337;-65
2023/10/18 05:13:19;;;;;;;;;;;;;;;1.21;79.53;100943.84;110632;1213;96305;-65
2023/10/18 05:15:44;;;;;;;;;;;;;;;1.19;79.64;100936.80;110591;1209;125371;-65
2023/10/18 05:18:15;;;;;;;;;;;;;;;1.19;79.67;100939.80;110648;1220;97409;-64
2023/10/18 05:20:46;;;;;;;;;;;;;;;1.21;79.62;100939.80;110649;1213;96171;-65
2023/10/18 05:23:21;;;;;;;;;;;;;;;1.21;79.77;100945.77;110616;1213;125222;-64
2023/10/18 05:25:47;;;;;;;;;;;;;;;1.24;79.90;100945.25;110586;1213;109483;-65
2023/10/18 05:28:16;;;;;;;;;;;;;;;1.26;79.75;100941.02;110428;1210;125262;-65
2023/10/18 05:38:48;;;;;;;;;;;;;;;1.26;79.67;100936.27;110783;1214;109935;-64
2023/10/18 05:43:52;;;;;;;;;;;;;;;1.24;79.74;100928.88;110780;1229;107918;-64
2023/10/18 05:46:20;;;;;;;;;;;;;;;1.23;79.78;100932.75;110679;1210;125006;-65
2023/10/18 05:48:45;;;;;;;;;;;;;;;1.22;79.79;100932.05;110827;1208;96296;-64
2023/10/18 05:53:58;;;;;;;;;;;;;;;1.19;79.90;100930.12;110656;1212;108145;-64
2023/10/18 05:56:29;;;;;;;;;;;;;;;1.20;80.04;100931.17;110854;1223;97830;-65
2023/10/18 05:59:22;;;;;;;;;;;;;;;1.24;80.00;100935.57;110627;1213;124477;-64
2023/10/18 06:01:40;;;;;;;;;;;;;;;1.27;80.04;100935.04;110749;1212;110543;-65
2023/10/18 06:04:05;;;;;;;;;;;;;;;1.33;80.15;100937.14;110663;1209;125885;-63
2023/10/18 06:06:31;;;;;;;;;;;;;;;1.38;80.12;100938.02;110842;1212;96978;-64
2023/10/18 06:08:57;;;;;;;;;;;;;;;1.42;80.22;100937.67;110794;1209;96315;-64
2023/10/18 06:11:22;;;;;;;;;;;;;;;1.49;80.38;100936.41;110584;1212;126459;-65
2023/10/18 06:13:48;;;;;;;;;;;;;;;1.57;80.35;100937.98;110935;1212;96308;-66
2023/10/18 06:16:19;;;;;;;;;;;;;;;1.64;80.41;100939.38;110718;1212;125167;-66
2023/10/18 06:18:48;;;;;;;;;;;;;;;1.71;80.48;100934.77;110868;1209;99031;-64
2023/10/18 06:21:18;;;;;;;;;;;;;;;1.78;80.45;100935.12;110732;1209;110556;-64
2023/10/18 06:23:54;;;;;;;;;;;;;;;1.85;80.54;100937.91;110723;1212;125324;-65
2023/10/18 06:26:28;;;;;;;;;;;;;;;1.90;80.53;100940.02;110710;1212;108137;-66
2023/10/18 06:29:00;;;;;;;;;;;;;;;1.94;80.54;100942.81;111058;1209;124615;-66
2023/10/18 06:31:29;;;;;;;;;;;;;;;1.96;80.56;100942.27;111365;1210;96442;-64
2023/10/18 06:33:59;;;;;;;;;;;;;;;1.99;80.51;100942.62;110818;1209;124655;-64
2023/10/18 06:36:24;;;;;;;;;;;;;;;2.05;80.80;100937.66;110923;1210;99600;-66
2023/10/18 06:38:50;;;;;;;;;;;;;;;2.11;80.75;100937.11;111319;1220;96397;-65
2023/10/18 06:41:18;;;;;;;;;;;;;;;2.18;80.72;100937.79;111363;1209;125715;-64
2023/10/18 06:43:44;;;;;;;;;;;;;;;2.24;80.99;100940.92;110813;1210;110734;-64
2023/10/18 06:46:13;;;;;;;;;;;;;;;2.30;80.97;100944.43;110711;1209;125278;-64
2023/10/18 06:48:39;;;;;;;;;;;;;;;2.37;80.93;100948.27;111438;1213;109145;-66
2023/10/18 06:51:11;;;;;;;;;;;;;;;2.42;80.98;100945.79;110826;1210;97592;-65
2023/10/18 06:53:38;;;;;;;;;;;;;;;2.47;81.02;100947.52;110604;1212;124382;-66
2023/10/18 06:56:19;;;;;;;;;;;;;;;2.51;80.86;100944.14;110300;1213;97633;-64
2023/10/18 06:58:44;;;;;;;;;;;;;;;2.57;81.07;100943.40;110543;1210;125437;-64
2023/10/18 07:01:30;;;;;;;;;;;;;;;2.63;81.02;100939.09;110653;1209;97704;-65
2023/10/18 07:03:55;;;;;;;;;;;;;;;2.72;81.23;100937.63;110449;1210;125906;-65
2023/10/18 07:06:24;;;;;;;;;;;;;;;2.79;81.24;100938.98;110738;1219;96531;-64
2023/10/18 07:08:49;;;;;;;;;;;;;;;2.86;81.33;100935.40;110742;1209;98058;-63
2023/10/18 07:11:18;;;;;;;;;;;;;;;2.93;81.38;100932.89;110660;1213;126150;-64
2023/10/18 07:13:46;;;;;;;;;;;;;;;3.02;81.29;100930.17;110754;1229;97607;-63
2023/10/18 07:16:12;;;;;;;;;;;;;;;3.10;81.49;100930.10;110607;1209;126243;-64
2023/10/18 07:18:44;;;;;;;;;;;;;;;3.18;81.50;100927.04;110857;1209;98123;-66
2023/10/18 07:21:10;;;;;;;;;;;;;;;3.26;81.45;100925.37;110874;1212;99164;-64
2023/10/18 07:23:36;;;;;;;;;;;;;;;3.34;81.54;100921.94;110730;1210;124431;-64
2023/10/18 07:26:07;;;;;;;;;;;;;;;3.43;81.36;100918.49;110851;1213;97692;-64
2023/10/18 07:28:35;;;;;;;;;;;;;;;3.53;81.49;100917.86;110634;1215;125425;-64
2023/10/18 07:31:01;;;;;;;;;;;;;;;3.62;81.49;100915.30;110443;1211;99872;-64
2023/10/18 07:33:26;;;;;;;;;;;;;;;3.72;81.54;100913.42;110901;1209;97680;-64
2023/10/18 07:35:52;;;;;;;;;;;;;;;3.82;81.65;100911.01;110630;1221;124757;-64
2023/10/18 07:38:25;;;;;;;;;;;;;;;3.90;81.62;100905.26;110671;1213;111313;-64
2023/10/18 07:41:00;;;;;;;;;;;;;;;3.98;81.59;100904.46;110619;1211;125449;-66
2023/10/18 07:43:27;;;;;;;;;;;;;;;4.06;81.82;100910.02;110894;1211;107838;-63
2023/10/18 07:45:53;;;;;;;;;;;;;;;4.13;81.75;100906.74;110672;1210;126095;-64
2023/10/18 07:48:19;;;;;;;;;;;;;;;4.19;81.69;100904.37;110756;1211;96586;-65
2023/10/18 07:50:49;;;;;;;;;;;;;;;4.25;81.81;100897.58;110806;1212;97592;-64
2023/10/18 07:53:15;;;;;;;;;;;;;;;4.33;81.96;100894.64;110669;1213;124873;-64
2023/10/18 07:55:43;;;;;;;;;;;;;;;4.42;81.71;100899.64;110797;1215;96447;-65
2023/10/18 07:58:17;;;;;;;;;;;;;;;4.49;81.64;100894.92;110792;1211;126276;-67
2023/10/18 08:03:27;;;;;;;;;;;;;;;4.69;81.95;100888.26;111258;1209;99538;-65
2023/10/18 08:05:53;;;;;;;;;;;;;;;4.81;82.05;100888.77;111220;1209;124355;-66
2023/10/18 08:08:18;;;;;;;;;;;;;;;4.94;81.90;100892.29;111291;1212;97588;-66
2023/10/18 08:10:43;;;;;;;;;;;;;;;5.04;82.07;100889.29;111246;1212;125405;-65
2023/10/18 08:13:16;;;;;;;;;;;;;;;5.15;82.14;100886.95;110953;1214;97591;-65
2023/10/18 08:15:50;;;;;;;;;;;;;;;5.30;81.98;100889.33;110644;1210;125114;-65
2023/10/18 08:18:16;;;;;;;;;;;;;;;5.44;81.97;100889.42;110757;1217;98911;-65
2023/10/18 08:23:40;;;;;;;;;;;;;;;5.66;81.81;100891.33;110654;1209;125692;-65
2023/10/18 08:26:04;;;;;;;;;;;;;;;5.76;81.99;100890.23;110713;1213;99731;-65
2023/10/18 08:28:38;;;;;;;;;;;;;;;5.85;81.88;100892.00;110529;1211;124913;-65
2023/10/18 08:31:32;;;;;;;;;;;;;;;5.95;81.87;100887.57;110691;1212;99090;-65
2023/10/18 08:33:58;;;;;;;;;;;;;;;6.06;81.94;100888.75;110616;1209;125627;-65
2023/10/18 08:36:29;;;;;;;;;;;;;;;6.19;82.01;100883.16;110710;1213;97708;-65
2023/10/18 08:39:01;;;;;;;;;;;;;;;6.33;81.76;100886.60;110648;1223;100272;-65
2023/10/18 08:41:32;;;;;;;;;;;;;;;6.44;81.86;100885.45;110611;1214;124911;-65
2023/10/18 08:44:19;;;;;;;;;;;;;;;6.55;81.83;100885.20;110724;1214;97608;-65
2023/10/18 08:46:53;;;;;;;;;;;;;;;6.67;81.66;100888.29;110466;1213;125057;-65
2023/10/18 08:49:22;;;;;;;;;;;;;;;6.75;81.75;100890.77;110685;1214;111601;-65
2023/10/18 08:51:54;;;;;;;;;;;;;;;6.85;81.63;100891.41;110579;1214;125544;-64
2023/10/18 08:54:22;;;;;;;;;;;;;;;6.97;81.74;100894.33;110503;1214;107986;-65
2023/10/18 08:56:47;;;;;;;;;;;;;;;7.09;81.69;100893.67;110684;1212;97620;-65
2023/10/18 08:59:18;;;;;;;;;;;;;;;7.22;81.52;100892.10;110514;1213;124512;-65
2023/10/18 09:02:08;;;;;;;;;;;;;;;7.30;81.41;100890.30;110597;1214;111508;-65
2023/10/18 09:04:31;;;;;;;;;;;;;;;7.36;81.14;100895.84;110379;1214;124942;-65
2023/10/18 09:06:57;;;;;;;;;;;;;;;7.42;81.16;100896.36;110592;1212;108198;-65
2023/10/18 09:09:22;;;;;;;;;;;;;;;7.50;81.07;100890.27;110597;1211;100563;-65
2023/10/18 09:11:48;;;;;;;;;;;;;;;7.57;80.94;100892.05;110497;1210;125466;-65
2023/10/18 09:14:15;;;;;;;;;;;;;;;7.66;81.18;100886.65;110613;1214;97579;-65
2023/10/18 09:16:42;;;;;;;;;;;;;;;7.76;80.82;100888.52;110546;1214;124739;-65
2023/10/18 09:19:07;;;;;;;;;;;;;;;7.83;80.64;100885.26;110608;1220;97609;-65
2023/10/18 09:21:57;;;;;;;;;;;;;;;7.87;80.35;100889.76;111454;1214;124621;-66
2023/10/18 09:24:30;;;;;;;;;;;;;;;7.92;80.15;100883.05;111467;1209;99583;-65
2023/10/18 09:26:57;;;;;;;;;;;;;;;7.97;80.01;100882.52;111499;1211;107623;-65
2023/10/18 09:29:25;;;;;;;;;;;;;;;8.05;79.96;100879.80;111192;1209;124596;-65
2023/10/18 09:31:54;;;;;;;;;;;;;;;8.10;79.91;100877.34;111472;1210;99091;-65
2023/10/18 09:34:23;;;;;;;;;;;;;;;8.17;79.22;100876.62;111381;1211;123752;-66
2023/10/18 09:36:56;;;;;;;;;;;;;;;8.22;79.38;100881.98;111492;1213;100559;-66
2023/10/18 09:39:21;;;;;;;;;;;;;;;8.26;78.58;100877.06;111434;1214;108244;-65
2023/10/18 09:41:47;;;;;;;;;;;;;;;8.31;78.82;100880.29;111304;1213;123780;-66
2023/10/18 09:44:12;;;;;;;;;;;;;;;8.34;78.59;100875.95;111487;1211;97604;-66
2023/10/18 09:46:38;;;;;;;;;;;;;;;8.35;78.20;100865.40;111399;1211;124521;-65
2023/10/18 09:49:08;;;;;;;;;;;;;;;8.36;78.30;100866.26;111451;1211;97600;-66
2023/10/18 09:51:33;;;;;;;;;;;;;;;8.43;78.19;100859.64;111381;1214;124773;-66
2023/10/18 09:53:59;;;;;;;;;;;;;;;8.51;78.11;100861.18;111449;1209;97653;-66
2023/10/18 09:56:27;;;;;;;;;;;;;;;8.58;77.79;100864.52;111488;1214;97771;-65
2023/10/18 09:59:05;;;;;;;;;;;;;;;8.63;77.65;100861.50;111311;1210;124802;-65
2023/10/18 10:04:09;;;;;;;;;;;;;;;8.81;77.48;100860.38;111313;1211;124444;-66
2023/10/18 10:06:34;;;;;;;;;;;;;;;8.90;76.65;100859.39;111460;1214;97670;-66
2023/10/18 10:09:12;;;;;;;;;;;;;;;8.92;76.06;100855.59;111467;1210;97602;-66
2023/10/18 10:11:39;;;;;;;;;;;;;;;8.96;75.41;100855.25;111354;1209;125220;-65
2023/10/18 10:14:08;;;;;;;;;;;;;;;9.02;75.45;100852.39;111473;1214;98264;-69
2023/10/18 10:16:33;;;;;;;;;;;;;;;9.13;75.50;100843.45;111322;1214;125433;-66
2023/10/18 10:19:04;;;;;;;;;;;;;;;9.24;75.22;100838.42;111447;1214;97647;-66
2023/10/18 10:21:31;;;;;;;;;;;;;;;9.31;75.04;100831.41;111327;1211;124282;-66
2023/10/18 10:24:06;;;;;;;;;;;;;;;9.38;74.98;100831.33;111542;1211;98505;-64
2023/10/18 10:26:35;;;;;;;;;;;;;;;9.45;74.77;100830.02;111455;1213;99031;-64
2023/10/18 10:31:54;;;;;;;;;;;;;;;9.51;74.19;100817.52;111236;1214;99492;-66
2023/10/18 10:34:26;;;;;;;;;;;;;;;9.59;74.17;100814.90;111160;1211;124709;-64
2023/10/18 10:36:52;;;;;;;;;;;;;;;9.70;74.10;100807.17;111295;1224;97657;-65
2023/10/18 10:39:23;;;;;;;;;;;;;;;9.81;74.01;100800.17;111685;1213;97595;-66
2023/10/18 10:41:49;;;;;;;;;;;;;;;9.90;73.68;100801.42;110926;1214;125847;-66
2023/10/18 10:44:22;;;;;;;;;;;;;;;9.96;73.71;100803.50;110687;1211;98706;-65
2023/10/18 10:46:50;;;;;;;;;;;;;;;10.01;73.48;100800.11;110416;1213;124041;-64
2023/10/18 10:49:41;;;;;;;;;;;;;;;10.07;73.31;100795.92;110580;1213;97758;-63
2023/10/18 10:52:08;;;;;;;;;;;;;;;10.09;72.92;100793.52;110548;1210;124264;-63
2023/10/18 10:54:37;;;;;;;;;;;;;;;10.16;72.76;100793.27;111199;1211;97654;-65
2023/10/18 10:57:04;;;;;;;;;;;;;;;10.23;72.77;100795.70;111436;1214;99516;-63
2023/10/18 10:59:35;;;;;;;;;;;;;;;10.28;72.36;100794.27;110868;1214;124940;-64
2023/10/18 11:02:06;;;;;;;;;;;;;;;10.37;72.44;100789.77;110719;1214;97330;-64
2023/10/18 11:04:49;;;;;;;;;;;;;;;10.50;72.36;100789.04;110732;1210;125221;-64
2023/10/18 11:07:21;;;;;;;;;;;;;;;10.62;72.26;100785.33;110750;1215;111953;-64
2023/10/18 11:09:47;;;;;;;;;;;;;;;10.72;71.79;100781.67;110711;1214;125207;-63
2023/10/18 11:12:13;;;;;;;;;;;;;;;10.74;71.44;100779.10;110954;1214;97626;-64
2023/10/18 11:14:41;;;;;;;;;;;;;;;10.79;70.85;100780.89;111306;1213;98039;-65
2023/10/18 11:19:41;;;;;;;;;;;;;;;10.87;71.16;100772.30;111316;1213;112460;-64
2023/10/18 11:22:19;;;;;;;;;;;;;;;10.90;70.92;100766.27;111113;1209;124629;-64
2023/10/18 11:24:45;;;;;;;;;;;;;;;11.05;70.93;100764.35;111295;1213;107892;-64
2023/10/18 11:27:10;;;;;;;;;;;;;;;11.22;70.56;100765.97;110788;1209;97607;-64
2023/10/18 11:29:39;;;;;;;;;;;;;;;11.31;70.41;100761.80;110667;1214;124783;-64
2023/10/18 11:32:08;;;;;;;;;;;;;;;11.42;70.42;100761.11;110729;1214;100028;-64
2023/10/18 11:34:40;;;;;;;;;;;;;;;11.50;70.42;100755.23;111230;1214;125849;-63
2023/10/18 11:37:08;;;;;;;;;;;;;;;11.57;70.30;100757.94;110660;1214;97597;-64
2023/10/18 11:39:33;;;;;;;;;;;;;;;11.64;70.05;100752.25;111233;1214;124457;-64
2023/10/18 11:41:59;;;;;;;;;;;;;;;11.79;70.19;100748.34;111343;1209;97610;-64
2023/10/18 11:44:31;;;;;;;;;;;;;;;11.95;70.10;100744.02;111417;1210;97707;-65
2023/10/18 11:47:18;;;;;;;;;;;;;;;12.19;70.09;100741.09;111205;1212;124133;-64
2023/10/18 11:49:44;;;;;;;;;;;;;;;12.24;69.46;100734.75;111296;1213;97710;-65
2023/10/18 11:52:17;;;;;;;;;;;;;;;12.20;69.25;100732.05;111000;1214;124314;-66
2023/10/18 11:54:43;;;;;;;;;;;;;;;12.24;68.93;100726.30;110756;1214;99455;-66
2023/10/18 11:57:25;;;;;;;;;;;;;;;12.42;68.83;100725.45;110652;1209;97596;-66
2023/10/18 11:59:51;;;;;;;;;;;;;;;12.74;68.80;100720.92;110745;1214;124127;-66
2023/10/18 12:02:17;;;;;;;;;;;;;;;12.90;68.55;100716.70;111025;1209;97856;-65
2023/10/18 12:04:44;;;;;;;;;;;;;;;13.05;68.51;100711.04;110933;1214;125507;-66
2023/10/18 12:07:10;;;;;;;;;;;;;;;13.21;68.21;100705.55;110681;1213;108429;-65
2023/10/18 12:09:45;;;;;;;;;;;;;;;13.32;68.13;100701.19;110629;1214;125685;-66
2023/10/18 12:12:13;;;;;;;;;;;;;;;13.45;68.11;100696.55;110762;1223;97667;-65
2023/10/18 12:14:42;;;;;;;;;;;;;;;13.66;68.05;100695.89;110876;1210;111588;-65
2023/10/18 12:17:08;;;;;;;;;;;;;;;14.17;68.16;100694.28;110731;1223;124315;-65
2023/10/18 12:19:35;;;;;;;;;;;;;;;14.47;67.78;100692.55;110690;1210;97739;-65
2023/10/18 12:22:00;;;;;;;;;;;;;;;14.54;66.59;100690.50;110699;1214;125269;-65
2023/10/18 12:24:27;;;;;;;;;;;;;;;14.86;66.73;100685.02;110824;1210;97591;-65
2023/10/18 12:26:55;;;;;;;;;;;;;;;15.10;66.28;100677.46;110800;1209;100458;-65
2023/10/18 12:29:26;;;;;;;;;;;;;;;15.15;65.29;100675.70;110640;1215;124780;-65
2023/10/18 12:31:53;;;;;;;;;;;;;;;14.94;63.71;100671.60;110750;1214;97692;-64
2023/10/18 12:34:21;;;;;;;;;;;;;;;15.10;64.24;100667.33;110714;1215;124933;-65
2023/10/18 12:36:49;;;;;;;;;;;;;;;15.20;63.17;100661.34;111301;1211;97700;-65
2023/10/18 12:39:20;;;;;;;;;;;;;;;15.14;62.36;100659.92;111309;1209;99482;-65
2023/10/18 12:41:46;;;;;;;;;;;;;;;15.02;61.47;100656.70;111168;1210;124400;-65
2023/10/18 12:44:17;;;;;;;;;;;;;;;15.18;61.75;100654.59;111294;1213;98220;-65
2023/10/18 12:46:43;;;;;;;;;;;;;;;15.65;62.07;100645.89;111229;1209;125685;-66
2023/10/18 12:49:11;;;;;;;;;;;;;;;16.13;62.20;100639.45;111307;1213;97709;-65
2023/10/18 12:51:42;;;;;;;;;;;;;;;16.62;62.42;100639.95;111193;1209;125401;-66
2023/10/18 12:54:19;;;;;;;;;;;;;;;16.93;62.33;100637.27;111276;1210;98845;-65
2023/10/18 12:56:56;;;;;;;;;;;;;;;17.04;62.17;100635.78;111304;1213;97594;-65
2023/10/18 12:59:27;;;;;;;;;;;;;;;16.93;61.34;100630.38;111198;1215;124179;-64
2023/10/18 13:01:58;;;;;;;;;;;;;;;16.99;61.31;100630.56;110797;1213;104537;-64
2023/10/18 13:04:27;;;;;;;;;;;;;;;17.10;61.33;100628.65;110614;1214;124410;-65
2023/10/18 13:06:53;;;;;;;;;;;;;;;17.45;61.64;100620.52;111341;1212;98468;-67
2023/10/18 13:09:19;;;;;;;;;;;;;;;17.80;61.57;100616.54;111096;1209;97725;-64
2023/10/18 13:11:46;;;;;;;;;;;;;;;18.10;61.46;100615.24;110741;1209;124130;-64
2023/10/18 13:14:17;;;;;;;;;;;;;;;18.18;60.79;100614.39;110821;1210;97646;-64
2023/10/18 13:16:42;;;;;;;;;;;;;;;18.23;60.87;100607.71;110842;1212;124220;-64